Time;durP1;ratioP1;P1;durP2;ratioP2;P2;SDS_P1;SDS_P2;PMS_P1;PMS_P2;Temp;Humidity;BMP_temperature;BMP_pressure;BME280_temperature;BME280_humidity;BME280_pressure;Samples;Min_cycle;Max_cycle;Signal;HPM_P1;HPM_P2
2023/04/18 00:00:49;;;;;;;15.07;9.93;;;;;;;10.45;69.76;102512.78;5013031;28;20112;-69
2023/04/18 00:03:15;;;;;;;15.48;9.63;;;;;;;10.43;69.53;102512.69;4995281;28;20023;-69
2023/04/18 00:05:42;;;;;;;15.60;10.13;;;;;;;10.34;69.32;102501.78;5013140;28;20398;-69
2023/04/18 00:08:08;;;;;;;19.25;9.52;;;;;;;10.34;69.75;102508.81;5012997;28;20033;-67
2023/04/18 00:10:33;;;;;;;17.60;10.00;;;;;;;10.33;69.73;102512.31;5013003;28;20022;-67
2023/04/18 00:12:59;;;;;;;13.90;9.50;;;;;;;10.36;68.91;102513.28;4995243;28;20042;-68
2023/04/18 00:15:24;;;;;;;14.07;9.93;;;;;;;10.30;69.38;102512.19;4995379;28;20507;-68
2023/04/18 00:17:51;;;;;;;14.75;10.27;;;;;;;10.24;69.46;102507.53;5013004;28;20026;-67
2023/04/18 00:20:16;;;;;;;15.93;9.80;;;;;;;10.26;69.25;102504.13;5012726;28;20112;-68
2023/04/18 00:22:45;;;;;;;14.40;10.07;;;;;;;10.27;69.52;102503.28;5012688;28;20111;-67
2023/04/18 00:25:10;;;;;;;14.73;9.93;;;;;;;10.25;69.68;102502.34;5012838;28;20030;-69
2023/04/18 00:27:40;;;;;;;19.35;10.25;;;;;;;10.25;69.69;102498.78;4995333;28;20076;-68
2023/04/18 00:30:07;;;;;;;15.23;9.93;;;;;;;10.30;69.65;102505.16;5013793;28;20026;-69
2023/04/18 00:32:32;;;;;;;14.93;9.80;;;;;;;10.25;69.66;102498.78;5016670;28;20041;-66
2023/04/18 00:34:57;;;;;;;16.65;10.30;;;;;;;10.23;69.72;102503.97;4999148;28;20029;-69
2023/04/18 00:37:23;;;;;;;16.05;9.68;;;;;;;10.16;69.83;102509.88;5016533;28;20029;-68
2023/04/18 00:39:52;;;;;;;14.23;9.90;;;;;;;10.03;69.40;102505.84;5016766;28;20025;-67
2023/04/18 00:42:18;;;;;;;16.17;10.38;;;;;;;10.01;69.39;102499.59;5016567;28;20494;-69
2023/04/18 00:44:43;;;;;;;15.75;8.85;;;;;;;10.03;69.19;102499.66;4998735;28;20608;-66
2023/04/18 00:47:08;;;;;;;15.52;9.48;;;;;;;10.02;68.16;102500.47;5016481;28;20030;-68
2023/04/18 00:49:34;;;;;;;14.55;9.30;;;;;;;9.94;67.09;102494.94;5016563;28;20415;-69
2023/04/18 00:51:59;;;;;;;13.43;9.18;;;;;;;9.86;66.77;102496.34;5016486;28;20026;-68
2023/04/18 00:54:26;;;;;;;11.75;8.82;;;;;;;9.81;66.59;102497.91;5016430;28;20022;-69
2023/04/18 00:56:52;;;;;;;15.93;9.15;;;;;;;9.75;66.08;102493.25;5015702;28;20033;-68
2023/04/18 00:59:17;;;;;;;19.73;9.00;;;;;;;9.74;65.47;102503.78;5016399;28;20030;-68
2023/04/18 01:01:43;;;;;;;12.23;8.55;;;;;;;9.72;66.19;102492.25;5016115;28;20102;-68
2023/04/18 01:04:09;;;;;;;14.95;9.40;;;;;;;9.68;64.66;102495.63;5016457;28;20118;-68
2023/04/18 01:06:35;;;;;;;14.05;8.68;;;;;;;9.64;64.74;102501.59;5016327;28;20057;-69
2023/04/18 01:09:01;;;;;;;12.15;8.50;;;;;;;9.57;65.41;102495.16;5016330;28;20026;-68
2023/04/18 01:11:27;;;;;;;13.63;8.75;;;;;;;9.56;64.93;102505.66;5016034;28;20038;-69
2023/04/18 01:14:03;;;;;;;14.35;9.05;;;;;;;9.54;65.08;102500.31;5015833;28;20049;-68
2023/04/18 01:16:31;;;;;;;14.73;8.57;;;;;;;9.58;64.72;102499.59;5015788;28;20030;-67
2023/04/18 01:19:00;;;;;;;15.80;8.60;;;;;;;9.58;65.68;102499.59;5016249;28;20026;-67
2023/04/18 01:21:29;;;;;;;13.38;8.90;;;;;;;9.54;64.78;102498.56;4982251;28;20381;-67
2023/04/18 01:23:59;;;;;;;18.45;9.55;;;;;;;9.51;64.89;102503.75;5016145;28;20034;-66
2023/04/18 01:26:25;;;;;;;14.70;9.15;;;;;;;9.44;64.39;102499.03;5015815;28;20072;-68
2023/04/18 01:28:50;;;;;;;13.38;8.88;;;;;;;9.37;64.69;102501.34;5015795;28;20065;-68
2023/04/18 01:31:16;;;;;;;13.90;8.88;;;;;;;9.32;64.85;102490.59;5015874;28;20026;-68
2023/04/18 01:33:41;;;;;;;13.40;8.88;;;;;;;9.30;64.68;102494.03;5015794;28;20386;-67
2023/04/18 01:36:06;;;;;;;11.43;8.10;;;;;;;9.30;65.55;102488.75;5015601;28;20026;-67
2023/04/18 01:38:32;;;;;;;17.25;9.55;;;;;;;9.26;65.32;102479.81;5015725;28;20463;-66
2023/04/18 01:40:57;;;;;;;12.23;8.93;;;;;;;9.21;65.75;102482.25;5014974;28;20387;-69
2023/04/18 01:43:22;;;;;;;13.25;8.95;;;;;;;9.18;65.63;102483.84;5015480;28;20026;-66
2023/04/18 01:45:48;;;;;;;17.92;9.38;;;;;;;9.14;65.46;102482.81;5015330;28;20053;-67
2023/04/18 01:48:13;;;;;;;13.75;8.68;;;;;;;9.05;65.85;102478.88;5015475;28;20495;-67
2023/04/18 01:50:39;;;;;;;12.40;9.10;;;;;;;8.98;66.76;102480.34;4997878;28;20033;-69
2023/04/18 01:53:04;;;;;;;18.17;9.18;;;;;;;8.91;66.45;102479.19;5015437;28;20140;-67
2023/04/18 01:55:29;;;;;;;14.02;9.43;;;;;;;8.89;67.28;102466.75;5015316;28;20065;-67
2023/04/18 01:57:55;;;;;;;12.68;8.95;;;;;;;8.86;66.98;102478.06;5014950;28;20026;-68
2023/04/18 02:00:20;;;;;;;13.38;9.18;;;;;;;8.81;67.27;102474.31;5015138;28;20365;-68
2023/04/18 02:02:46;;;;;;;13.55;9.18;;;;;;;8.83;66.71;102477.06;5015188;28;20029;-67
2023/04/18 02:05:11;;;;;;;15.10;9.23;;;;;;;8.81;67.22;102473.44;4997751;28;20030;-67
2023/04/18 02:07:36;;;;;;;14.32;9.27;;;;;;;8.77;67.11;102475.91;5015407;28;20394;-69
2023/04/18 02:10:02;;;;;;;11.32;8.40;;;;;;;8.71;67.47;102480.94;4997473;28;20530;-67
2023/04/18 02:12:27;;;;;;;18.88;9.38;;;;;;;8.66;67.57;102474.56;5014583;28;20061;-67
2023/04/18 02:14:53;;;;;;;16.60;10.35;;;;;;;8.64;68.21;102475.31;5014740;28;20029;-68
2023/04/18 02:17:20;;;;;;;14.90;9.43;;;;;;;8.60;67.39;102476.91;5014752;28;20030;-67
2023/04/18 02:19:47;;;;;;;17.27;9.50;;;;;;;8.52;67.81;102471.31;5014954;28;20026;-67
2023/04/18 02:22:12;;;;;;;13.25;8.68;;;;;;;8.45;67.63;102471.88;5014783;28;20057;-68
2023/04/18 02:24:38;;;;;;;15.32;8.88;;;;;;;8.41;68.67;102475.19;5015035;28;20109;-67
2023/04/18 02:27:03;;;;;;;13.38;9.02;;;;;;;8.34;67.79;102467.78;4998001;28;20069;-67
2023/04/18 02:29:29;;;;;;;12.98;9.07;;;;;;;8.27;67.50;102471.00;5015384;28;20018;-68
2023/04/18 02:31:55;;;;;;;16.90;9.30;;;;;;;8.25;69.25;102468.28;5014933;28;20112;-66
2023/04/18 02:34:20;;;;;;;18.00;9.48;;;;;;;8.23;68.55;102469.06;5014706;28;20032;-67
2023/04/18 02:36:45;;;;;;;18.52;9.43;;;;;;;8.18;67.47;102468.84;5014621;28;20113;-68
2023/04/18 02:39:11;;;;;;;13.25;9.20;;;;;;;8.19;67.75;102467.09;5014560;28;20030;-68
2023/04/18 02:41:38;;;;;;;14.38;9.05;;;;;;;8.21;69.16;102476.84;4996865;28;20029;-66
2023/04/18 02:44:04;;;;;;;13.75;9.23;;;;;;;8.17;68.55;102474.00;5014333;28;20492;-66
2023/04/18 02:46:29;;;;;;;14.20;8.95;;;;;;;8.13;68.38;102469.44;5014513;28;20036;-67
2023/04/18 02:48:54;;;;;;;13.18;8.85;;;;;;;8.12;68.47;102467.63;5014322;28;20088;-66
2023/04/18 02:51:20;;;;;;;12.25;8.23;;;;;;;8.10;68.35;102475.47;5014337;28;20025;-67
2023/04/18 02:53:45;;;;;;;13.05;8.20;;;;;;;8.11;69.16;102465.84;4995942;28;20391;-66
2023/04/18 02:56:15;;;;;;;12.18;8.48;;;;;;;8.10;68.72;102469.31;5013957;28;20109;-68
2023/04/18 02:58:41;;;;;;;14.40;8.75;;;;;;;8.08;68.32;102471.84;5014212;28;20545;-66
2023/04/18 03:01:06;;;;;;;14.27;8.27;;;;;;;8.14;69.85;102476.53;4996525;28;20037;-66
2023/04/18 03:03:32;;;;;;;12.23;8.70;;;;;;;8.11;68.94;102472.00;5013896;28;20022;-65
2023/04/18 03:05:57;;;;;;;14.50;8.70;;;;;;;8.04;68.02;102468.16;5013653;28;20116;-67
2023/04/18 03:08:23;;;;;;;15.20;9.10;;;;;;;8.01;68.25;102473.31;5013759;28;20368;-67
2023/04/18 03:10:48;;;;;;;19.88;9.23;;;;;;;7.96;68.72;102471.28;5013816;28;20076;-67
2023/04/18 03:13:15;;;;;;;14.75;9.27;;;;;;;7.93;68.37;102465.88;5013574;28;20050;-66
2023/04/18 03:15:41;;;;;;;14.32;8.88;;;;;;;7.87;68.73;102469.09;4996280;28;20045;-67
2023/04/18 03:18:07;;;;;;;12.02;8.35;;;;;;;7.84;68.51;102460.19;5013603;28;20092;-66
2023/04/18 03:20:33;;;;;;;12.60;9.40;;;;;;;7.75;68.41;102466.81;4996295;28;20030;-65
2023/04/18 03:22:58;;;;;;;15.38;9.32;;;;;;;7.73;69.13;102471.06;5013855;28;20032;-65
2023/04/18 03:25:24;;;;;;;12.73;9.50;;;;;;;7.75;70.16;102473.78;5013653;28;20427;-66
2023/04/18 03:27:50;;;;;;;12.95;8.85;;;;;;;7.71;69.07;102474.47;5013597;28;20030;-66
2023/04/18 03:30:16;;;;;;;12.18;9.02;;;;;;;7.68;69.07;102471.69;5013844;28;20079;-67
2023/04/18 03:32:41;;;;;;;13.90;9.07;;;;;;;7.66;69.75;102481.22;5013603;28;20373;-66
2023/04/18 03:35:07;;;;;;;12.77;8.65;;;;;;;7.62;69.38;102479.25;5013509;28;20041;-67
2023/04/18 03:37:32;;;;;;;13.48;8.80;;;;;;;7.55;69.70;102467.56;4995870;28;20026;-67
2023/04/18 03:39:58;;;;;;;13.68;9.30;;;;;;;7.55;68.70;102470.19;5013493;28;20365;-67
2023/04/18 03:42:23;;;;;;;14.95;8.93;;;;;;;7.52;69.62;102472.66;4995785;28;20045;-66
2023/04/18 03:44:49;;;;;;;13.88;8.75;;;;;;;7.52;69.98;102470.94;5013445;28;20506;-67
2023/04/18 03:47:15;;;;;;;13.57;8.90;;;;;;;7.49;69.66;102478.69;5013268;28;20042;-66
2023/04/18 03:49:41;;;;;;;13.70;9.43;;;;;;;7.49;69.13;102483.94;5013584;28;20368;-67
2023/04/18 03:52:06;;;;;;;16.05;9.40;;;;;;;7.49;69.10;102477.75;5013310;28;20033;-67
2023/04/18 03:54:31;;;;;;;13.32;9.10;;;;;;;7.44;69.85;102479.25;5013160;28;20083;-66
2023/04/18 03:56:58;;;;;;;15.27;9.32;;;;;;;7.41;70.30;102476.47;5013016;28;20044;-66
2023/04/18 03:59:24;;;;;;;15.70;9.13;;;;;;;7.37;69.87;102482.44;5013091;28;20455;-67
2023/04/18 04:01:49;;;;;;;12.60;8.63;;;;;;;7.32;69.77;102476.91;5013473;28;20066;-66
2023/04/18 04:04:15;;;;;;;14.35;9.20;;;;;;;7.23;69.52;102480.00;5012978;28;20022;-67
2023/04/18 04:06:40;;;;;;;13.65;9.10;;;;;;;7.14;69.90;102478.63;5013132;28;20064;-67
2023/04/18 04:09:06;;;;;;;14.70;9.38;;;;;;;7.09;71.54;102477.50;5013225;28;20048;-67
2023/04/18 04:11:32;;;;;;;14.65;9.20;;;;;;;7.05;71.17;102481.69;5012975;28;20037;-66
2023/04/18 04:13:57;;;;;;;15.68;8.75;;;;;;;7.07;71.07;102474.81;5012901;28;20045;-67
2023/04/18 04:16:23;;;;;;;12.88;8.73;;;;;;;7.08;70.36;102476.59;5012883;28;20034;-67
2023/04/18 04:18:48;;;;;;;18.00;9.43;;;;;;;7.09;71.13;102478.41;5013025;28;20072;-66
2023/04/18 04:21:14;;;;;;;13.38;8.82;;;;;;;7.11;71.10;102476.78;5013277;28;20438;-67
2023/04/18 04:23:41;;;;;;;13.32;8.88;;;;;;;7.12;70.82;102486.44;5012826;28;20476;-65
2023/04/18 04:26:07;;;;;;;12.90;8.48;;;;;;;7.13;70.75;102483.00;5013011;28;20034;-66
2023/04/18 04:28:34;;;;;;;16.00;8.57;;;;;;;7.08;71.64;102488.84;4995667;28;20026;-66
2023/04/18 04:31:00;;;;;;;12.80;8.73;;;;;;;7.06;71.30;102490.47;5013191;28;20021;-66
2023/04/18 04:33:32;;;;;;;13.63;8.55;;;;;;;7.05;70.98;102481.69;5013303;28;20030;-65
2023/04/18 04:35:58;;;;;;;12.70;8.90;;;;;;;7.00;71.57;102478.84;5013005;28;20033;-66
2023/04/18 04:38:23;;;;;;;14.43;8.95;;;;;;;6.92;71.50;102485.41;5012731;28;20022;-65
2023/04/18 04:40:50;;;;;;;14.02;9.00;;;;;;;6.92;71.53;102487.16;5012904;28;20036;-67
2023/04/18 04:43:15;;;;;;;15.50;9.65;;;;;;;6.86;71.63;102489.47;5012780;28;20029;-66
2023/04/18 04:45:43;;;;;;;12.57;8.73;;;;;;;6.82;71.62;102484.88;5012650;28;20033;-67
2023/04/18 04:48:10;;;;;;;13.40;9.05;;;;;;;6.82;72.06;102495.38;5012701;28;20036;-64
2023/04/18 04:50:37;;;;;;;13.70;9.23;;;;;;;6.78;71.79;102495.22;4995286;28;20458;-65
2023/04/18 04:53:04;;;;;;;11.95;8.68;;;;;;;6.81;72.45;102493.56;5012589;28;20037;-64
2023/04/18 04:55:29;;;;;;;14.10;8.50;;;;;;;6.79;71.77;102493.47;5012773;28;20033;-66
2023/04/18 04:57:55;;;;;;;12.73;8.57;;;;;;;6.78;72.61;102500.47;5012445;28;20029;-67
2023/04/18 05:00:21;;;;;;;13.52;8.57;;;;;;;6.77;71.79;102498.66;5012593;28;20061;-64
2023/04/18 05:02:52;;;;;;;14.13;8.90;;;;;;;6.75;71.24;102502.91;5012543;28;20026;-65
2023/04/18 05:05:17;;;;;;;13.05;8.88;;;;;;;6.75;71.85;102491.50;5012522;28;20045;-66
2023/04/18 05:07:43;;;;;;;13.02;8.95;;;;;;;6.75;70.87;102496.78;5012456;28;20030;-65
2023/04/18 05:10:09;;;;;;;15.48;8.70;;;;;;;6.77;71.79;102496.03;5012450;28;20026;-68
2023/04/18 05:12:34;;;;;;;12.82;9.07;;;;;;;6.82;71.13;102503.25;5012162;28;20030;-67
2023/04/18 05:15:00;;;;;;;11.50;8.10;;;;;;;6.82;71.24;102500.63;5012346;28;20026;-65
2023/04/18 05:17:25;;;;;;;12.55;8.57;;;;;;;6.86;71.19;102503.50;5015195;28;20105;-65
2023/04/18 05:19:51;;;;;;;17.65;11.02;;;;;;;6.92;72.17;102511.69;5015860;28;20092;-65
2023/04/18 05:22:16;;;;;;;22.70;14.20;;;;;;;6.97;70.94;102506.66;5015277;28;20117;-66
2023/04/18 05:24:42;;;;;;;18.23;10.30;;;;;;;7.05;70.74;102507.06;4998031;28;20026;-66
2023/04/18 05:27:07;;;;;;;15.35;9.32;;;;;;;7.06;70.70;102512.41;4998094;28;20029;-66
2023/04/18 05:29:33;;;;;;;15.65;9.95;;;;;;;7.04;70.76;102506.19;5015754;28;20026;-66
2023/04/18 05:31:58;;;;;;;12.77;9.10;;;;;;;6.99;71.00;102511.19;5015823;28;20022;-66
2023/04/18 05:34:23;;;;;;;13.13;8.68;;;;;;;7.02;71.20;102516.63;5015600;28;20365;-64
2023/04/18 05:36:49;;;;;;;12.65;8.73;;;;;;;7.07;70.53;102516.84;5015448;28;20076;-65
2023/04/18 05:39:15;;;;;;;15.00;9.38;;;;;;;7.10;70.42;102521.34;5015662;28;20060;-66
2023/04/18 05:41:41;;;;;;;13.15;8.95;;;;;;;7.13;70.87;102521.53;5015127;28;20436;-67
2023/04/18 05:44:07;;;;;;;12.68;8.70;;;;;;;7.15;70.47;102522.50;5015168;28;20026;-65
2023/04/18 05:46:32;;;;;;;15.48;9.10;;;;;;;7.07;71.43;102527.38;5015329;28;20030;-66
2023/04/18 05:48:58;;;;;;;13.70;8.90;;;;;;;7.10;71.42;102524.88;5015351;28;20427;-65
2023/04/18 05:51:23;;;;;;;13.20;9.00;;;;;;;7.15;71.92;102533.94;5015389;28;20479;-65
2023/04/18 05:53:49;;;;;;;15.88;8.88;;;;;;;7.17;71.43;102527.00;5015182;28;20353;-65
2023/04/18 05:56:14;;;;;;;13.88;8.68;;;;;;;7.22;72.44;102533.41;5014932;28;20383;-66
2023/04/18 05:58:40;;;;;;;13.73;8.90;;;;;;;7.28;71.06;102533.75;5015249;28;20440;-67
2023/04/18 06:01:05;;;;;;;13.35;8.52;;;;;;;7.31;71.49;102530.34;5015077;28;20034;-65
2023/04/18 06:03:31;;;;;;;14.25;9.02;;;;;;;7.39;71.31;102536.91;4997750;28;20472;-65
2023/04/18 06:05:56;;;;;;;14.32;9.40;;;;;;;7.47;71.03;102534.66;5014796;28;20022;-65
2023/04/18 06:08:22;;;;;;;12.38;8.68;;;;;;;7.53;71.90;102538.47;5015063;28;20483;-65
2023/04/18 06:10:47;;;;;;;15.95;9.27;;;;;;;7.56;70.62;102537.75;5014973;28;20030;-67
2023/04/18 06:13:13;;;;;;;13.40;8.82;;;;;;;7.66;72.19;102541.72;5014600;28;20053;-66
2023/04/18 06:15:38;;;;;;;14.48;8.95;;;;;;;7.70;71.83;102534.06;5014691;28;20030;-65
2023/04/18 06:18:04;;;;;;;14.00;8.77;;;;;;;7.81;72.54;102533.72;5014737;28;20033;-67
2023/04/18 06:23:50;;;;;;;12.57;9.07;;;;;;;8.03;70.83;102542.72;5015003;28;20068;-66
2023/04/18 06:26:16;;;;;;;13.73;8.48;;;;;;;8.10;71.67;102553.56;4996990;28;20069;-66
2023/04/18 06:28:42;;;;;;;13.10;8.77;;;;;;;8.14;71.04;102550.25;4997011;28;20034;-67
2023/04/18 06:31:07;;;;;;;15.73;9.45;;;;;;;8.10;70.75;102543.94;5014711;28;20034;-67
2023/04/18 06:33:33;;;;;;;11.60;8.90;;;;;;;8.17;71.39;102553.00;5014721;28;20433;-67
2023/04/18 06:35:58;;;;;;;13.43;8.80;;;;;;;8.36;71.21;102549.53;5014725;28;20506;-67
2023/04/18 06:38:23;;;;;;;16.33;9.82;;;;;;;8.43;71.34;102544.63;5016495;28;20030;-66
2023/04/18 06:40:49;;;;;;;13.73;9.07;;;;;;;8.47;70.22;102549.22;5021884;28;20022;-67
2023/04/18 06:43:14;;;;;;;13.27;8.82;;;;;;;8.57;71.04;102550.56;5019855;28;20037;-68
2023/04/18 06:45:39;;;;;;;12.45;8.40;;;;;;;8.60;70.42;102548.06;5016075;28;20458;-67
2023/04/18 06:48:07;;;;;;;14.07;8.93;;;;;;;8.63;70.75;102557.84;5014846;28;20018;-66
2023/04/18 06:50:32;;;;;;;13.75;8.80;;;;;;;8.58;69.92;102551.47;5014703;28;20080;-67
2023/04/18 06:52:57;;;;;;;14.02;8.57;;;;;;;8.65;71.69;102554.47;5014343;28;20029;-65
2023/04/18 06:55:23;;;;;;;13.70;8.27;;;;;;;8.69;70.15;102558.09;5014069;28;20498;-67
2023/04/18 06:57:48;;;;;;;14.63;8.43;;;;;;;8.78;70.36;102555.94;5013908;28;20033;-66
2023/04/18 07:00:14;;;;;;;14.35;9.02;;;;;;;8.84;69.77;102560.56;5013881;28;20467;-68
2023/04/18 07:02:40;;;;;;;18.67;9.43;;;;;;;8.87;70.38;102560.72;5014304;28;20104;-67
2023/04/18 07:05:06;;;;;;;15.82;8.38;;;;;;;9.01;69.66;102565.75;4996530;28;20119;-68
2023/04/18 07:07:33;;;;;;;10.65;7.43;;;;;;;9.22;69.90;102570.19;5013703;28;20056;-67
2023/04/18 07:09:59;;;;;;;11.70;8.65;;;;;;;9.45;69.13;102569.44;5013904;28;20076;-67
2023/04/18 07:12:24;;;;;;;12.30;8.52;;;;;;;9.49;67.50;102571.38;4996015;28;20097;-67
2023/04/18 07:14:50;;;;;;;15.18;8.80;;;;;;;9.37;67.67;102572.56;4995846;28;20472;-67
2023/04/18 07:17:16;;;;;;;12.73;8.05;;;;;;;9.35;68.59;102569.88;5013967;28;20034;-67
2023/04/18 07:19:42;;;;;;;13.45;8.52;;;;;;;9.37;68.55;102575.22;5013672;28;20388;-68
2023/04/18 07:22:08;;;;;;;11.30;8.00;;;;;;;9.46;68.78;102572.97;5013762;28;20037;-68
2023/04/18 07:24:34;;;;;;;12.25;8.15;;;;;;;9.42;67.77;102569.31;5013563;28;20080;-68
2023/04/18 07:27:00;;;;;;;11.02;8.80;;;;;;;9.40;68.38;102572.72;4996141;28;20492;-68
2023/04/18 07:29:25;;;;;;;12.70;8.10;;;;;;;9.52;69.01;102575.88;4995833;28;20137;-68
2023/04/18 07:31:51;;;;;;;12.13;8.00;;;;;;;9.57;68.10;102574.34;5013440;28;20098;-66
2023/04/18 07:34:16;;;;;;;12.27;8.07;;;;;;;9.64;68.11;102571.13;4996054;28;20080;-67
2023/04/18 07:36:42;;;;;;;11.63;8.13;;;;;;;9.61;67.56;102580.66;5015937;28;20085;-68
2023/04/18 07:39:08;;;;;;;14.52;7.60;;;;;;;9.58;68.25;102584.06;4995427;28;20038;-67
2023/04/18 07:41:33;;;;;;;12.07;8.27;;;;;;;9.57;68.76;102579.63;4994881;28;20026;-67
2023/04/18 07:44:00;;;;;;;12.20;8.20;;;;;;;9.57;69.14;102579.63;5012756;28;20030;-66
2023/04/18 07:46:26;;;;;;;11.02;7.70;;;;;;;9.68;68.47;102580.97;4995239;28;20049;-67
2023/04/18 07:48:51;;;;;;;13.23;8.73;;;;;;;9.70;67.90;102581.03;5013053;28;20061;-67
2023/04/18 07:51:16;;;;;;;11.43;8.13;;;;;;;9.75;68.51;102582.13;5013086;28;20025;-67
2023/04/18 07:53:44;;;;;;;11.13;8.05;;;;;;;9.90;67.92;102592.44;5012977;28;20022;-66
2023/04/18 07:56:13;;;;;;;11.20;7.57;;;;;;;10.04;69.35;102581.59;5012916;28;20057;-67
2023/04/18 07:58:39;;;;;;;14.18;7.60;;;;;;;10.09;68.35;102583.53;5012765;28;20037;-68
2023/04/18 08:01:05;;;;;;;11.32;7.97;;;;;;;10.14;67.34;102588.13;5012914;28;20022;-67
2023/04/18 08:03:33;;;;;;;11.27;8.02;;;;;;;10.29;67.81;102587.91;5013038;28;20041;-67
2023/04/18 08:05:58;;;;;;;11.80;8.70;;;;;;;10.36;66.86;102587.28;5012840;28;20116;-67
2023/04/18 08:08:23;;;;;;;10.27;7.88;;;;;;;10.34;66.84;102591.63;5013130;28;20137;-68
2023/04/18 08:10:49;;;;;;;11.93;7.57;;;;;;;10.40;66.36;102596.25;5012910;28;20026;-67
2023/04/18 08:13:14;;;;;;;10.98;7.90;;;;;;;10.49;66.79;102593.94;5012527;28;20053;-68
2023/04/18 08:15:40;;;;;;;10.50;7.53;;;;;;;10.52;65.92;102592.34;5012752;28;20030;-67
2023/04/18 08:18:05;;;;;;;42.25;8.60;;;;;;;10.62;66.98;102597.97;5012908;28;20554;-68
2023/04/18 08:20:31;;;;;;;12.80;7.70;;;;;;;10.62;66.08;102587.41;5012910;28;20030;-66
2023/04/18 08:22:56;;;;;;;10.85;7.47;;;;;;;10.54;65.55;102592.41;5012923;28;20030;-65
2023/04/18 08:25:22;;;;;;;14.43;7.93;;;;;;;10.43;66.58;102594.63;5012975;28;20109;-67
2023/04/18 08:27:47;;;;;;;10.55;7.80;;;;;;;10.45;66.77;102590.31;5012727;28;20064;-66
2023/04/18 08:30:13;;;;;;;10.40;7.55;;;;;;;10.49;66.59;102591.31;4995305;28;20022;-68
2023/04/18 08:32:39;;;;;;;10.18;7.60;;;;;;;10.51;66.50;102590.53;4995345;28;20472;-67
2023/04/18 08:35:04;;;;;;;11.55;7.75;;;;;;;10.58;66.77;102603.97;5012657;28;20030;-68
2023/04/18 08:37:34;;;;;;;12.30;8.02;;;;;;;10.58;66.94;102590.75;5012750;28;20037;-67
2023/04/18 08:39:59;;;;;;;11.02;8.02;;;;;;;10.65;67.12;102596.34;5012666;28;20030;-67
2023/04/18 08:42:25;;;;;;;10.93;8.15;;;;;;;10.78;67.38;102593.34;5012784;28;20104;-67
2023/04/18 08:44:51;;;;;;;13.10;8.05;;;;;;;10.81;66.28;102583.72;5012556;28;20475;-66
2023/04/18 08:47:18;;;;;;;10.55;7.97;;;;;;;10.86;67.49;102596.28;5012512;28;20030;-67
2023/04/18 08:49:45;;;;;;;10.98;7.78;;;;;;;10.95;66.03;102583.38;4995313;28;20037;-67
2023/04/18 08:52:12;;;;;;;12.15;8.20;;;;;;;11.05;65.79;102584.66;5015451;28;20029;-68
2023/04/18 08:54:41;;;;;;;10.88;7.82;;;;;;;11.13;65.93;102590.19;5016483;28;20036;-67
2023/04/18 08:57:08;;;;;;;10.35;7.32;;;;;;;11.21;65.11;102580.78;5016157;28;20490;-67
2023/04/18 08:59:37;;;;;;;14.48;8.55;;;;;;;11.38;64.98;102582.28;5016349;28;20029;-68
2023/04/18 09:02:05;;;;;;;10.80;8.30;;;;;;;11.62;64.33;102576.06;5016250;28;20026;-68
2023/04/18 09:04:44;;;;;;;11.75;8.07;;;;;;;11.76;63.69;102570.38;5016172;28;20025;-68
2023/04/18 09:07:12;;;;;;;10.93;7.50;;;;;;;11.85;62.96;102563.63;5016379;28;20061;-68
2023/04/18 09:09:48;;;;;;;10.85;7.93;;;;;;;12.25;61.93;102563.19;5016214;28;20436;-68
2023/04/18 09:12:24;;;;;;;10.52;8.23;;;;;;;12.75;59.94;102563.78;5016290;28;20026;-68
2023/04/18 09:14:56;;;;;;;10.38;8.18;;;;;;;13.31;58.05;102567.16;4977328;28;20065;-67
2023/04/18 09:17:40;;;;;;;10.95;7.55;;;;;;;13.66;57.94;102560.16;4977109;28;20058;-68
2023/04/18 09:20:09;;;;;;;9.43;7.43;;;;;;;13.66;56.58;102556.56;4976970;28;20042;-67
2023/04/18 09:22:52;;;;;;;9.68;7.28;;;;;;;13.65;55.86;102563.66;4976920;28;20041;-67
2023/04/18 09:25:33;;;;;;;9.57;6.65;;;;;;;13.45;56.04;102571.13;4976967;28;20027;-67
2023/04/18 09:28:00;;;;;;;9.60;6.60;;;;;;;13.30;56.19;102568.03;4977075;28;20049;-67
2023/04/18 09:30:31;;;;;;;9.18;6.85;;;;;;;13.13;55.75;102571.94;4976648;28;20516;-68
2023/04/18 09:32:58;;;;;;;8.65;6.90;;;;;;;13.02;55.12;102582.28;4977059;28;20034;-67
2023/04/18 09:35:25;;;;;;;8.95;6.60;;;;;;;12.86;55.68;102572.97;4976673;28;20031;-67
2023/04/18 09:37:51;;;;;;;11.75;7.00;;;;;;;12.81;56.22;102579.00;4976845;28;20041;-67
2023/04/18 09:40:17;;;;;;;8.98;6.90;;;;;;;13.04;54.57;102572.59;4975456;28;20118;-69
2023/04/18 09:42:44;;;;;;;12.85;7.20;;;;;;;13.33;55.62;102568.13;4976437;28;20481;-67
2023/04/18 09:45:11;;;;;;;8.98;6.63;;;;;;;13.50;55.00;102556.19;4976321;28;20038;-68
2023/04/18 09:47:38;;;;;;;10.82;6.07;;;;;;;13.59;53.13;102566.16;4976665;28;20069;-68
2023/04/18 09:50:05;;;;;;;7.22;5.65;;;;;;;13.45;53.40;102564.91;4976417;28;20037;-68
2023/04/18 09:52:35;;;;;;;7.40;5.97;;;;;;;13.28;53.95;102570.66;4976418;28;20093;-68
2023/04/18 09:55:03;;;;;;;9.30;5.82;;;;;;;13.13;55.14;102564.00;4976297;28;20425;-67
2023/04/18 09:57:30;;;;;;;9.50;6.50;;;;;;;13.06;56.77;102556.69;4976047;28;20432;-67
2023/04/18 10:00:07;;;;;;;10.88;6.78;;;;;;;12.91;56.79;102566.03;4975061;28;20409;-67
2023/04/18 10:02:46;;;;;;;8.30;6.95;;;;;;;12.89;56.82;102559.81;4976117;28;20062;-68
2023/04/18 10:05:12;;;;;;;9.05;6.13;;;;;;;12.91;56.33;102563.38;4976163;28;20027;-68
2023/04/18 10:07:38;;;;;;;8.20;6.13;;;;;;;12.86;56.59;102569.41;4974850;28;20035;-68
2023/04/18 10:10:05;;;;;;;7.13;5.80;;;;;;;12.64;55.75;102566.13;4975955;28;20053;-67
2023/04/18 10:12:31;;;;;;;8.25;5.82;;;;;;;12.52;56.60;102579.91;4978020;28;20574;-68
2023/04/18 10:14:57;;;;;;;8.80;5.50;;;;;;;12.49;56.51;102570.97;5014817;28;20149;-67
2023/04/18 10:17:26;;;;;;;7.93;5.18;;;;;;;12.44;57.87;102570.84;4997186;28;20116;-68
2023/04/18 10:20:09;;;;;;;7.20;5.10;;;;;;;12.49;57.21;102571.88;5014649;28;20062;-67
2023/04/18 10:22:34;;;;;;;6.72;4.85;;;;;;;12.47;55.90;102567.38;4981444;28;20125;-67
2023/04/18 10:25:00;;;;;;;5.65;4.50;;;;;;;12.41;55.76;102568.06;5015016;28;20057;-67
2023/04/18 10:27:54;;;;;;;6.80;4.40;;;;;;;12.53;56.65;102572.88;5014837;28;20491;-66
2023/04/18 10:30:39;;;;;;;7.35;4.80;;;;;;;12.64;57.26;102570.53;5014660;28;20038;-66
2023/04/18 10:33:25;;;;;;;6.30;4.60;;;;;;;12.74;56.24;102585.88;5014415;28;20471;-67
2023/04/18 10:35:57;;;;;;;6.38;4.85;;;;;;;12.63;56.74;102572.28;5014618;28;20056;-67
2023/04/18 10:38:23;;;;;;;7.43;5.15;;;;;;;12.63;56.06;102576.69;5014376;28;20029;-68
2023/04/18 10:40:49;;;;;;;6.50;5.10;;;;;;;12.62;56.95;102581.09;5014470;28;20053;-68
2023/04/18 10:43:14;;;;;;;7.25;5.20;;;;;;;12.60;56.55;102574.84;5014262;28;20405;-67
2023/04/18 10:45:40;;;;;;;8.57;5.43;;;;;;;12.65;56.38;102572.34;5014300;28;20026;-67
2023/04/18 10:48:28;;;;;;;6.97;5.50;;;;;;;12.75;57.43;102569.09;5014322;28;20022;-67
2023/04/18 10:51:23;;;;;;;7.90;5.90;;;;;;;12.89;57.26;102575.72;5014483;28;20369;-67
2023/04/18 10:53:55;;;;;;;9.52;6.03;;;;;;;12.96;56.92;102561.75;4993091;28;20523;-68
2023/04/18 10:56:21;;;;;;;9.88;5.53;;;;;;;13.02;57.02;102564.59;5014149;28;20108;-68
2023/04/18 10:58:51;;;;;;;8.68;5.55;;;;;;;13.02;57.63;102566.34;5014359;28;20104;-68
2023/04/18 11:01:27;;;;;;;7.22;5.32;;;;;;;13.01;56.85;102569.84;5014356;28;20018;-68
2023/04/18 11:03:54;;;;;;;8.45;5.57;;;;;;;12.88;57.38;102565.03;5014065;28;20033;-67
2023/04/18 11:06:22;;;;;;;7.78;6.05;;;;;;;12.75;57.33;102574.41;5013878;28;20030;-68
2023/04/18 11:08:48;;;;;;;8.30;6.22;;;;;;;12.60;56.98;102563.34;5014236;28;20077;-68
2023/04/18 11:11:14;;;;;;;8.13;6.53;;;;;;;12.48;57.60;102559.47;5013876;28;20121;-67
2023/04/18 11:13:57;;;;;;;9.50;6.80;;;;;;;12.48;58.30;102571.81;5012880;28;20712;-67
2023/04/18 11:16:26;;;;;;;8.95;6.72;;;;;;;12.52;59.29;102563.13;5013763;28;20435;-67
2023/04/18 11:18:53;;;;;;;11.73;8.18;;;;;;;12.59;58.86;102557.16;5013643;28;20038;-67
2023/04/18 11:21:18;;;;;;;8.68;6.80;;;;;;;12.63;58.31;102553.72;5013690;28;20034;-67
2023/04/18 11:23:44;;;;;;;10.00;7.82;;;;;;;12.64;57.54;102552.88;5013790;28;20026;-67
2023/04/18 11:26:11;;;;;;;12.15;8.07;;;;;;;12.63;57.90;102560.78;5013884;28;20030;-68